createdAt,value
2022-08-30T00:01:05.224Z,102276.47
2022-08-30T00:03:52.212Z,102280.84
2022-08-30T00:06:37.600Z,102279.91
2022-08-30T00:09:23.313Z,102284.31
2022-08-30T00:12:09.733Z,102284.25
2022-08-30T00:14:56.551Z,102284.25
2022-08-30T00:17:44.035Z,102287.78
2022-08-30T00:20:32.580Z,102290.41
2022-08-30T00:23:19.212Z,102293.03
2022-08-30T00:26:06.633Z,102299.16
2022-08-30T00:28:52.224Z,102295.66
2022-08-30T00:31:37.518Z,102296.53
2022-08-30T00:34:22.842Z,102299.16
2022-08-30T00:37:08.221Z,102303.50
2022-08-30T00:39:53.580Z,102301.78
2022-08-30T00:42:39.894Z,102304.41
2022-08-30T00:45:30.304Z,102307.06
2022-08-30T00:48:15.635Z,102307.03
2022-08-30T00:51:05.520Z,102309.69
2022-08-30T00:53:55.096Z,102303.50
2022-08-30T00:56:41.081Z,102314.00
2022-08-30T00:59:27.733Z,102318.34
2022-08-30T01:02:14.335Z,102320.97
2022-08-30T01:05:02.493Z,102320.91
2022-08-30T01:07:48.046Z,102324.44
2022-08-30T01:10:38.893Z,102338.44
2022-08-30T01:13:27.208Z,102331.41
2022-08-30T01:16:12.756Z,102333.19
2022-08-30T01:18:58.962Z,102334.00
2022-08-30T01:21:57.423Z,102338.38
2022-08-30T01:24:47.869Z,102340.13
2022-08-30T01:27:37.578Z,102341.88
2022-08-30T01:30:24.458Z,102347.13
2022-08-30T01:33:12.050Z,102336.59
2022-08-30T01:36:05.075Z,102340.94
2022-08-30T01:38:56.963Z,102340.88
2022-08-30T01:41:43.733Z,102334.69
2022-08-30T01:44:29.221Z,102341.59
2022-08-30T01:47:18.292Z,102344.13
2022-08-30T01:50:05.683Z,102337.91
2022-08-30T01:52:51.289Z,102343.94
2022-08-30T01:55:38.875Z,102339.50
2022-08-30T01:58:24.801Z,102332.38
2022-08-30T02:01:13.406Z,102341.16
2022-08-30T02:03:58.807Z,102341.91
2022-08-30T02:06:45.211Z,102339.28
2022-08-30T02:09:30.746Z,102341.84
2022-08-30T02:12:15.985Z,102341.81
2022-08-30T02:15:01.297Z,102342.63
2022-08-30T02:17:46.755Z,102335.50
2022-08-30T02:20:32.369Z,102341.56
2022-08-30T02:23:18.433Z,102335.34
2022-08-30T02:26:05.752Z,102331.78
2022-08-30T02:28:52.534Z,102334.38
2022-08-30T02:31:38.029Z,102330.91
2022-08-30T02:34:23.371Z,102336.03
2022-08-30T02:37:09.222Z,102336.94
2022-08-30T02:39:54.647Z,102336.94
2022-08-30T02:42:41.859Z,102340.41
2022-08-30T02:45:27.647Z,102339.53
2022-08-30T02:48:13.170Z,102343.84
2022-08-30T02:51:09.589Z,102342.97
2022-08-30T02:53:57.544Z,102350.84
2022-08-30T02:56:42.788Z,102350.91
2022-08-30T02:59:28.113Z,102359.81
2022-08-30T03:02:14.384Z,102357.97
2022-08-30T03:05:00.066Z,102353.53
2022-08-30T03:07:47.668Z,102353.41
2022-08-30T03:10:33.173Z,102347.25
2022-08-30T03:13:18.567Z,102345.44
2022-08-30T03:16:04.032Z,102346.25
2022-08-30T03:18:49.767Z,102347.81
2022-08-30T03:21:38.172Z,102345.28
2022-08-30T03:24:23.821Z,102351.56
2022-08-30T03:27:09.823Z,102351.72
2022-08-30T03:29:56.128Z,102353.53
2022-08-30T03:32:42.060Z,102346.47
2022-08-30T03:35:29.099Z,102352.56
2022-08-30T03:38:19.311Z,102351.72
2022-08-30T03:41:05.775Z,102359.59
2022-08-30T03:43:52.953Z,102356.97
2022-08-30T03:46:45.374Z,102361.25
2022-08-30T03:49:32.016Z,102355.16
2022-08-30T03:52:17.567Z,102355.19
2022-08-30T03:55:05.232Z,102354.28
2022-08-30T03:57:50.706Z,102357.69
2022-08-30T04:00:37.683Z,102352.50
2022-08-30T04:03:26.091Z,102356.91
2022-08-30T04:06:11.812Z,102358.63
2022-08-30T04:08:57.667Z,102357.63
2022-08-30T04:11:43.230Z,102362.75
2022-08-30T04:14:28.932Z,102356.53
2022-08-30T04:17:14.581Z,102366.84
2022-08-30T04:19:59.777Z,102358.97
2022-08-30T04:22:45.893Z,102365.09
2022-08-30T04:25:31.629Z,102361.44
2022-08-30T04:28:16.925Z,102362.28
2022-08-30T04:31:12.027Z,102360.53
2022-08-30T04:33:57.600Z,102362.09
2022-08-30T04:36:43.068Z,102354.97
2022-08-30T04:39:33.864Z,102359.19
2022-08-30T04:42:20.094Z,102359.94
2022-08-30T04:45:09.005Z,102357.97
2022-08-30T04:47:54.409Z,102358.75
2022-08-30T04:50:43.195Z,102364.84
2022-08-30T04:53:30.669Z,102364.75
2022-08-30T04:56:22.470Z,102367.44
2022-08-30T04:59:08.382Z,102375.34
2022-08-30T05:01:53.605Z,102373.56
2022-08-30T05:04:58.976Z,102383.25
2022-08-30T05:07:44.674Z,102377.31
2022-08-30T05:10:29.969Z,102392.28
2022-08-30T05:13:17.620Z,102389.63
2022-08-30T05:16:05.995Z,102396.53
2022-08-30T05:18:52.129Z,102400.00
2022-08-30T05:21:40.671Z,102406.16
2022-08-30T05:24:27.208Z,102415.75
2022-08-30T05:27:12.942Z,102427.09
2022-08-30T05:29:58.886Z,102422.72
2022-08-30T05:32:45.407Z,102423.50
2022-08-30T05:35:30.980Z,102434.91
2022-08-30T05:38:16.651Z,102433.03
2022-08-30T05:41:07.815Z,102435.47
2022-08-30T05:43:57.708Z,102436.56
2022-08-30T05:46:46.360Z,102441.00
2022-08-30T05:49:31.924Z,102440.03
2022-08-30T05:52:18.395Z,102441.56
2022-08-30T05:55:05.770Z,102437.97
2022-08-30T05:57:51.302Z,102437.00
2022-08-30T06:00:38.106Z,102430.97
2022-08-30T06:03:23.943Z,102430.97
2022-08-30T06:06:12.598Z,102431.06
2022-08-30T06:08:58.429Z,102426.84
2022-08-30T06:11:44.945Z,102435.81
2022-08-30T06:14:30.406Z,102438.72
2022-08-30T06:17:15.902Z,102448.56
2022-08-30T06:20:01.671Z,102448.59
2022-08-30T06:22:47.199Z,102444.25
2022-08-30T06:25:41.424Z,102466.19
2022-08-30T06:28:27.758Z,102461.06
2022-08-30T06:31:16.379Z,102466.38
2022-08-30T06:34:01.666Z,102470.91
2022-08-30T06:36:47.342Z,102470.97
2022-08-30T06:39:32.601Z,102481.47
2022-08-30T06:42:19.862Z,102486.88
2022-08-30T06:45:10.835Z,102479.94
2022-08-30T06:50:54.463Z,102484.44
2022-08-30T06:53:39.796Z,102480.19
2022-08-30T06:56:27.600Z,102485.47
2022-08-30T06:59:13.823Z,102470.69
2022-08-30T07:01:59.184Z,102475.19
2022-08-30T07:04:44.767Z,102468.31
2022-08-30T07:07:30.175Z,102464.00
2022-08-30T07:10:15.767Z,102464.00
2022-08-30T07:13:01.363Z,102457.16
2022-08-30T07:15:47.016Z,102458.09
2022-08-30T07:18:50.780Z,102459.06
2022-08-30T07:21:40.278Z,102453.91
2022-08-30T07:24:25.458Z,102446.97
2022-08-30T07:27:10.690Z,102444.41
2022-08-30T07:29:58.598Z,102442.66
2022-08-30T07:32:44.531Z,102444.38
2022-08-30T07:35:29.936Z,102442.63
2022-08-30T07:38:15.675Z,102447.91
2022-08-30T07:41:01.456Z,102451.50
2022-08-30T07:43:47.885Z,102450.72
2022-08-30T07:46:33.810Z,102458.69
2022-08-30T07:49:20.266Z,102455.28
2022-08-30T07:52:06.063Z,102453.66
2022-08-30T07:54:52.998Z,102464.31
2022-08-30T07:57:38.636Z,102451.28
2022-08-30T08:00:24.534Z,102453.16
2022-08-30T08:03:10.979Z,102455.03
2022-08-30T08:05:57.208Z,102451.56
2022-08-30T08:08:45.484Z,102458.66
2022-08-30T08:11:33.676Z,102456.03
2022-08-30T08:14:21.594Z,102453.41
2022-08-30T08:17:07.283Z,102463.06
2022-08-30T08:19:52.621Z,102458.78
2022-08-30T08:22:40.050Z,102463.19
2022-08-30T08:25:26.136Z,102469.34
2022-08-30T08:28:11.684Z,102470.25
2022-08-30T08:30:57.247Z,102467.66
2022-08-30T08:33:43.381Z,102474.72
2022-08-30T08:36:30.620Z,102480.00
2022-08-30T08:39:17.187Z,102477.38
2022-08-30T08:42:36.758Z,102475.59
2022-08-30T08:45:39.244Z,102483.50
2022-08-30T08:49:00.058Z,102475.66
2022-08-30T08:52:04.904Z,102476.63
2022-08-30T08:55:01.918Z,102478.41
2022-08-30T08:57:48.018Z,102475.78
2022-08-30T09:00:33.730Z,102478.44
2022-08-30T09:03:22.439Z,102478.44
2022-08-30T09:06:45.221Z,102476.72
2022-08-30T09:09:40.791Z,102477.59
2022-08-30T09:12:27.687Z,102476.78
2022-08-30T09:15:25.913Z,102479.41
2022-08-30T09:18:19.086Z,102470.66
2022-08-30T09:21:08.068Z,102474.19
2022-08-30T09:24:01.476Z,102482.97
2022-08-30T09:26:49.076Z,102475.06
2022-08-30T09:29:34.685Z,102481.25
2022-08-30T09:32:42.645Z,102484.75
2022-08-30T09:35:42.535Z,102482.16
2022-08-30T09:38:32.946Z,102483.88
2022-08-30T09:41:50.205Z,102492.69
2022-08-30T09:44:38.522Z,102485.69
2022-08-30T09:47:33.241Z,102486.56
2022-08-30T09:50:24.316Z,102486.56
2022-08-30T09:53:23.440Z,102498.88
2022-08-30T09:56:12.914Z,102498.03
2022-08-30T09:59:01.392Z,102498.88
2022-08-30T10:02:00.312Z,102499.78
2022-08-30T10:05:01.154Z,102500.66
2022-08-30T10:07:55.926Z,102504.16
2022-08-30T10:10:52.789Z,102504.13
2022-08-30T10:13:53.290Z,102503.28
2022-08-30T10:16:45.485Z,102505.88
2022-08-30T10:19:46.022Z,102511.16
2022-08-30T10:22:37.818Z,102515.53
2022-08-30T10:25:29.034Z,102522.59
2022-08-30T10:28:35.126Z,102517.34
2022-08-30T10:31:42.537Z,102515.59
2022-08-30T10:34:36.401Z,102511.19
2022-08-30T10:37:26.364Z,102507.69
2022-08-30T10:40:41.804Z,102511.25
2022-08-30T10:43:41.742Z,102505.97
2022-08-30T10:46:48.429Z,102506.78
2022-08-30T10:49:48.033Z,102494.41
2022-08-30T10:52:52.020Z,102501.41
2022-08-30T10:55:49.852Z,102491.72
2022-08-30T10:58:39.238Z,102495.22
2022-08-30T11:01:46.808Z,102492.59
2022-08-30T11:05:00.606Z,102487.25
2022-08-30T11:07:52.582Z,102493.38
2022-08-30T11:10:57.141Z,102495.94
2022-08-30T11:13:45.513Z,102498.53
2022-08-30T11:16:38.031Z,102499.44
2022-08-30T11:19:39.825Z,102492.44
2022-08-30T11:22:30.057Z,102492.50
2022-08-30T11:25:38.772Z,102496.00
2022-08-30T11:28:50.694Z,102491.59
2022-08-30T11:31:39.645Z,102484.59
2022-08-30T11:34:44.791Z,102483.63
2022-08-30T11:37:43.075Z,102485.31
2022-08-30T11:40:35.962Z,102493.16
2022-08-30T11:43:34.077Z,102485.25
2022-08-30T11:46:29.089Z,102484.22
2022-08-30T11:49:14.401Z,102487.47
2022-08-30T11:52:31.703Z,102499.59
2022-08-30T11:55:23.426Z,102494.03
2022-08-30T11:58:45.812Z,102500.03
2022-08-30T12:01:51.777Z,102494.78
2022-08-30T12:04:47.301Z,102510.75
2022-08-30T12:08:02.741Z,102508.66
2022-08-30T12:10:51.387Z,102512.56
2022-08-30T12:13:42.891Z,102510.97
2022-08-30T12:16:28.609Z,102513.59
2022-08-30T12:19:20.846Z,102506.13
2022-08-30T12:22:07.271Z,102503.13
2022-08-30T12:24:54.880Z,102503.66
2022-08-30T12:27:40.454Z,102510.69
2022-08-30T12:30:28.192Z,102501.63
2022-08-30T12:33:23.041Z,102495.09
2022-08-30T12:36:30.676Z,102506.84
2022-08-30T12:39:21.226Z,102496.03
2022-08-30T12:42:17.650Z,102505.03
2022-08-30T12:45:12.909Z,102499.56
2022-08-30T12:48:03.587Z,102498.63
2022-08-30T12:50:53.941Z,102491.50
2022-08-30T12:53:43.578Z,102493.91
2022-08-30T12:57:25.454Z,102497.06
2022-08-30T13:00:24.261Z,102497.28
2022-08-30T13:03:35.258Z,102489.25
2022-08-30T13:06:57.794Z,102488.19
2022-08-30T13:09:44.147Z,102486.56
2022-08-30T13:12:30.365Z,102490.38
2022-08-30T13:15:20.538Z,102486.44
2022-08-30T13:18:27.543Z,102494.81
2022-08-30T13:21:32.542Z,102499.75
2022-08-30T13:24:20.390Z,102499.22
2022-08-30T13:27:09.819Z,102501.84
2022-08-30T13:29:56.818Z,102504.91
2022-08-30T13:32:43.547Z,102499.63
2022-08-30T13:35:30.689Z,102499.13
2022-08-30T13:38:16.749Z,102482.75
2022-08-30T13:41:02.277Z,102481.41
2022-08-30T13:47:32.338Z,102471.75
2022-08-30T13:50:05.371Z,102477.63
2022-08-30T13:52:50.926Z,102469.91
2022-08-30T13:55:39.241Z,102464.19
2022-08-30T13:58:26.303Z,102468.53
2022-08-30T14:01:13.293Z,102463.13
2022-08-30T14:04:15.698Z,102461.56
2022-08-30T14:07:20.378Z,102459.94
2022-08-30T14:13:13.596Z,102454.53
2022-08-30T14:19:08.378Z,102460.25
2022-08-30T14:21:53.717Z,102461.44
2022-08-30T14:24:39.011Z,102465.91
2022-08-30T14:27:24.884Z,102466.00
2022-08-30T14:30:12.753Z,102468.16
2022-08-30T14:32:58.475Z,102471.91
2022-08-30T14:35:44.125Z,102469.56
2022-08-30T14:38:29.548Z,102464.13
2022-08-30T14:41:15.490Z,102461.72
2022-08-30T14:44:01.541Z,102453.84
2022-08-30T14:46:48.158Z,102452.94
2022-08-30T14:49:33.955Z,102456.25
2022-08-30T14:52:20.104Z,102454.78
2022-08-30T14:55:09.596Z,102461.53
2022-08-30T14:57:55.148Z,102456.75
2022-08-30T15:00:40.578Z,102465.31
2022-08-30T15:03:27.612Z,102460.81
2022-08-30T15:06:13.613Z,102468.59
2022-08-30T15:08:59.696Z,102464.50
2022-08-30T15:11:47.003Z,102457.44
2022-08-30T15:14:32.740Z,102467.38
2022-08-30T15:17:19.443Z,102470.00
2022-08-30T15:20:09.863Z,102460.31
2022-08-30T15:22:56.769Z,102456.56
2022-08-30T15:25:44.182Z,102463.41
2022-08-30T15:28:29.545Z,102459.75
2022-08-30T15:31:18.833Z,102457.63
2022-08-30T15:34:04.597Z,102463.53
2022-08-30T15:36:52.361Z,102452.91
2022-08-30T15:39:37.878Z,102451.84
2022-08-30T15:42:27.119Z,102450.78
2022-08-30T15:45:12.534Z,102450.63
2022-08-30T15:48:01.352Z,102450.28
2022-08-30T15:50:47.730Z,102445.56
2022-08-30T15:53:34.780Z,102443.50
2022-08-30T15:56:21.013Z,102441.00
2022-08-30T15:59:07.188Z,102437.44
2022-08-30T16:01:55.321Z,102438.91
2022-08-30T16:04:43.102Z,102440.16
2022-08-30T16:07:29.117Z,102433.97
2022-08-30T16:10:15.274Z,102429.75
2022-08-30T16:13:01.738Z,102432.84
2022-08-30T16:15:48.357Z,102435.84
2022-08-30T16:18:36.038Z,102433.72
2022-08-30T16:21:30.842Z,102426.72
2022-08-30T16:24:18.963Z,102432.25
2022-08-30T16:27:08.763Z,102426.69
2022-08-30T16:29:54.638Z,102430.81
2022-08-30T16:32:40.583Z,102429.75
2022-08-30T16:35:26.547Z,102423.44
2022-08-30T16:38:12.822Z,102431.25
2022-08-30T16:40:58.437Z,102428.38
2022-08-30T16:43:44.907Z,102429.03
2022-08-30T16:46:31.153Z,102429.31
2022-08-30T16:49:16.670Z,102430.59
2022-08-30T16:52:02.661Z,102416.19
2022-08-30T16:54:52.277Z,102426.28
2022-08-30T16:57:38.778Z,102418.78
2022-08-30T17:00:25.144Z,102416.03
2022-08-30T17:03:13.819Z,102424.38
2022-08-30T17:05:59.512Z,102423.03
2022-08-30T17:08:45.817Z,102426.97
2022-08-30T17:11:35.123Z,102422.00
2022-08-30T17:14:29.109Z,102423.50
2022-08-30T17:17:15.982Z,102426.75
2022-08-30T17:20:01.983Z,102423.34
2022-08-30T17:22:49.099Z,102423.59
2022-08-30T17:25:35.170Z,102431.63
2022-08-30T17:28:21.982Z,102429.16
2022-08-30T17:31:09.022Z,102431.94
2022-08-30T17:33:57.989Z,102424.97
2022-08-30T17:36:47.131Z,102423.22
2022-08-30T17:39:32.537Z,102412.69
2022-08-30T17:42:18.033Z,102419.75
2022-08-30T17:45:09.244Z,102415.38
2022-08-30T17:47:54.882Z,102409.16
2022-08-30T17:50:40.210Z,102414.34
2022-08-30T17:53:26.050Z,102417.84
2022-08-30T17:56:11.470Z,102416.13
2022-08-30T17:58:56.776Z,102420.50
2022-08-30T18:01:44.467Z,102424.84
2022-08-30T18:04:30.198Z,102417.75
2022-08-30T18:07:16.417Z,102424.66
2022-08-30T18:10:07.075Z,102423.59
2022-08-30T18:12:52.855Z,102432.50
2022-08-30T18:15:38.705Z,102428.97
2022-08-30T18:18:29.961Z,102428.19
2022-08-30T18:21:18.237Z,102432.69
2022-08-30T18:24:08.476Z,102442.41
2022-08-30T18:26:55.062Z,102446.03
2022-08-30T18:29:40.769Z,102447.88
2022-08-30T18:32:36.075Z,102450.56
2022-08-30T18:35:24.523Z,102462.88
2022-08-30T18:38:10.211Z,102464.63
2022-08-30T18:41:06.523Z,102468.13
2022-08-30T18:44:10.921Z,102465.50
2022-08-30T18:47:00.433Z,102466.38
2022-08-30T18:49:46.442Z,102471.63
2022-08-30T18:52:32.830Z,102475.16
2022-08-30T18:55:19.488Z,102469.00
2022-08-30T18:58:05.365Z,102466.31
2022-08-30T19:00:51.605Z,102462.81
2022-08-30T19:03:37.425Z,102458.34
2022-08-30T19:06:23.207Z,102461.88
2022-08-30T19:09:09.464Z,102467.16
2022-08-30T19:11:55.383Z,102467.06
2022-08-30T19:14:41.269Z,102469.66
2022-08-30T19:17:26.864Z,102478.34
2022-08-30T19:20:22.112Z,102475.66
2022-08-30T19:23:08.953Z,102472.94
2022-08-30T19:25:56.090Z,102478.16
2022-08-30T19:28:43.580Z,102475.41
2022-08-30T19:31:29.432Z,102475.31
2022-08-30T19:34:15.433Z,102483.16
2022-08-30T19:37:01.247Z,102482.25
2022-08-30T19:39:47.375Z,102477.84
2022-08-30T19:42:32.709Z,102482.97
2022-08-30T19:45:21.634Z,102483.81
2022-08-30T19:48:07.850Z,102484.69
2022-08-30T19:50:53.842Z,102495.97
2022-08-30T19:53:39.870Z,102495.94
2022-08-30T19:56:25.866Z,102496.81
2022-08-30T19:59:12.056Z,102493.25
2022-08-30T20:01:57.785Z,102498.44
2022-08-30T20:04:43.282Z,102502.78
2022-08-30T20:07:31.282Z,102504.50
2022-08-30T20:10:19.926Z,102509.72
2022-08-30T20:13:05.820Z,102511.38
2022-08-30T20:15:56.588Z,102506.91
2022-08-30T20:18:44.378Z,102513.91
2022-08-30T20:21:30.096Z,102513.00
2022-08-30T20:24:16.290Z,102515.56
2022-08-30T20:27:03.682Z,102516.41
2022-08-30T20:29:49.475Z,102508.47
2022-08-30T20:32:37.290Z,102518.16
2022-08-30T20:35:23.798Z,102512.00
2022-08-30T20:38:10.406Z,102520.69
2022-08-30T20:40:58.627Z,102515.34
2022-08-30T20:43:45.583Z,102520.56
2022-08-30T20:46:34.182Z,102524.00
2022-08-30T20:49:20.430Z,102523.09
2022-08-30T20:52:06.348Z,102531.81
2022-08-30T20:54:55.249Z,102526.50
2022-08-30T20:57:41.063Z,102532.56
2022-08-30T21:00:28.115Z,102532.50
2022-08-30T21:03:27.611Z,102528.97
2022-08-30T21:06:14.025Z,102530.63
2022-08-30T21:08:59.663Z,102533.16
2022-08-30T21:11:45.477Z,102528.72
2022-08-30T21:14:31.152Z,102533.84
2022-08-30T21:17:17.973Z,102536.38
2022-08-30T21:20:05.298Z,102539.78
2022-08-30T21:22:50.584Z,102530.06
2022-08-30T21:25:39.489Z,102531.78
2022-08-30T21:28:24.924Z,102537.91
2022-08-30T21:31:16.355Z,102542.31
2022-08-30T21:34:02.128Z,102544.00
2022-08-30T21:36:47.736Z,102549.22
2022-08-30T21:39:33.414Z,102545.69
2022-08-30T21:42:18.962Z,102547.47
2022-08-30T21:45:05.541Z,102552.63
2022-08-30T21:47:50.826Z,102554.38
2022-08-30T21:50:40.068Z,102555.25
2022-08-30T21:53:25.697Z,102551.78
2022-08-30T21:56:21.506Z,102552.63
2022-08-30T21:59:09.642Z,102548.31
2022-08-30T22:01:55.451Z,102554.38
2022-08-30T22:04:42.009Z,102551.72
2022-08-30T22:07:27.715Z,102549.94
2022-08-30T22:10:15.418Z,102554.22
2022-08-30T22:13:01.003Z,102547.19
2022-08-30T22:15:46.270Z,102548.91
2022-08-30T22:18:32.425Z,102551.44
2022-08-30T22:21:22.145Z,102551.41
2022-08-30T22:24:09.433Z,102549.66
2022-08-30T22:26:54.812Z,102551.41
2022-08-30T22:29:40.578Z,102560.19
2022-08-30T22:32:26.205Z,102555.84
2022-08-30T22:35:11.620Z,102559.28
2022-08-30T22:37:57.548Z,102557.63
2022-08-30T22:40:48.178Z,102556.66
2022-08-30T22:43:33.839Z,102565.38
2022-08-30T22:46:20.487Z,102564.53
2022-08-30T22:49:16.535Z,102564.47
2022-08-30T22:52:02.038Z,102561.78
2022-08-30T22:54:49.464Z,102569.69
2022-08-30T22:57:36.967Z,102567.94
2022-08-30T23:00:22.765Z,102569.56
2022-08-30T23:03:10.890Z,102573.97
2022-08-30T23:05:56.768Z,102568.81
2022-08-30T23:08:42.257Z,102573.06
2022-08-30T23:11:27.887Z,102572.25
2022-08-30T23:14:16.463Z,102579.06
2022-08-30T23:17:02.389Z,102572.88
2022-08-30T23:19:48.371Z,102577.19
2022-08-30T23:22:33.846Z,102580.59
2022-08-30T23:25:41.217Z,102577.00
2022-08-30T23:28:45.979Z,102588.16
2022-08-30T23:31:50.217Z,102584.72
2022-08-30T23:34:54.790Z,102581.31
2022-08-30T23:37:59.295Z,102590.94
2022-08-30T23:41:03.049Z,102599.63
2022-08-30T23:44:06.966Z,102592.53
2022-08-30T23:47:11.587Z,102598.69
2022-08-30T23:50:15.793Z,102591.75
2022-08-30T23:53:20.103Z,102600.56
2022-08-30T23:56:28.752Z,102588.34
2022-08-30T23:59:33.009Z,102595.34
